Time;durP1;ratioP1;P1;durP2;ratioP2;P2;SDS_P1;SDS_P2;PMS_P1;PMS_P2;Temp;Humidity;BMP_temperature;BMP_pressure;BME280_temperature;BME280_humidity;BME280_pressure;Samples;Min_cycle;Max_cycle;Signal;HPM_P1;HPM_P2
2023/05/16 00:00:27;;;;;;;17.55;3.65;;;7.80;86.10;;;;;;4884613;29;20478;-87
2023/05/16 00:02:53;;;;;;;18.63;3.85;;;7.70;86.10;;;;;;4873604;29;20045;-87
2023/05/16 00:05:18;;;;;;;18.40;3.67;;;7.80;86.20;;;;;;4889488;29;20031;-88
2023/05/16 00:07:46;;;;;;;14.20;3.90;;;7.80;86.10;;;;;;4886507;29;20044;-87
2023/05/16 00:10:12;;;;;;;21.67;4.05;;;7.80;86.00;;;;;;4875857;29;20045;-88
2023/05/16 00:12:38;;;;;;;18.88;4.18;;;7.70;86.00;;;;;;4882614;29;20049;-86
2023/05/16 00:15:11;;;;;;;14.93;3.47;;;7.70;86.00;;;;;;4884749;29;20040;-88
2023/05/16 00:17:37;;;;;;;15.93;3.45;;;7.60;86.20;;;;;;4861581;29;20066;-88
2023/05/16 00:20:09;;;;;;;17.83;4.60;;;7.60;86.30;;;;;;4869391;29;20029;-88
2023/05/16 00:22:36;;;;;;;15.93;3.45;;;7.60;86.30;;;;;;4874681;29;20040;-88
2023/05/16 00:25:02;;;;;;;14.40;3.80;;;7.60;86.40;;;;;;4871869;29;20524;-88
2023/05/16 00:27:28;;;;;;;17.60;3.85;;;7.50;86.40;;;;;;4862294;29;20132;-87
2023/05/16 00:29:54;;;;;;;15.23;3.55;;;7.50;86.50;;;;;;4875561;29;20116;-87
2023/05/16 00:32:20;;;;;;;15.50;4.22;;;7.50;86.50;;;;;;4872269;29;20348;-88
2023/05/16 00:34:46;;;;;;;17.98;4.10;;;7.40;86.50;;;;;;4867233;29;20036;-88
2023/05/16 00:37:12;;;;;;;16.25;3.90;;;7.40;86.60;;;;;;4860518;29;20401;-88
2023/05/16 00:39:38;;;;;;;18.38;4.15;;;7.40;86.60;;;;;;4856564;29;20066;-87
2023/05/16 00:42:04;;;;;;;15.25;4.13;;;7.40;86.60;;;;;;4857033;29;20481;-88
2023/05/16 00:44:30;;;;;;;21.40;4.80;;;7.30;86.60;;;;;;4856684;29;20397;-87
2023/05/16 00:46:57;;;;;;;15.02;3.50;;;7.40;86.70;;;;;;4871620;29;20051;-88
2023/05/16 00:49:23;;;;;;;16.30;3.35;;;7.30;86.60;;;;;;4864254;29;20040;-87
2023/05/16 00:51:49;;;;;;;18.05;4.00;;;7.30;86.60;;;;;;4854706;29;20040;-88
2023/05/16 00:54:15;;;;;;;15.35;3.83;;;7.30;86.70;;;;;;4860655;29;20041;-88
2023/05/16 00:56:40;;;;;;;14.93;4.10;;;7.20;86.70;;;;;;4861397;29;20497;-87
2023/05/16 00:59:06;;;;;;;13.38;3.38;;;7.20;86.80;;;;;;4862836;29;20124;-88
2023/05/16 01:01:34;;;;;;;15.75;4.57;;;7.10;86.80;;;;;;4860384;29;20033;-86
2023/05/16 01:03:59;;;;;;;13.32;3.10;;;7.10;86.90;;;;;;4852586;29;20450;-88
2023/05/16 01:06:25;;;;;;;15.23;3.80;;;7.10;87.00;;;;;;4858254;29;20064;-88
2023/05/16 01:08:51;;;;;;;16.58;4.07;;;7.10;87.10;;;;;;4857061;29;20029;-88
2023/05/16 01:11:58;;;;;;;18.98;3.50;;;7.10;87.00;;;;;;4878006;29;20044;-88
2023/05/16 01:14:28;;;;;;;14.95;3.72;;;7.10;87.10;;;;;;4818926;29;20049;-88
2023/05/16 01:17:03;;;;;;;15.32;3.67;;;7.10;87.20;;;;;;4881630;29;20512;-88
2023/05/16 01:20:14;;;;;;;13.38;3.63;;;7.00;87.20;;;;;;4882535;29;20033;-87
2023/05/16 01:22:59;;;;;;;15.07;4.30;;;7.00;87.20;;;;;;4825161;29;20062;-87
2023/05/16 01:25:42;;;;;;;13.32;3.72;;;7.00;87.30;;;;;;4883708;29;20045;-87
2023/05/16 01:28:09;;;;;;;13.07;4.10;;;7.00;87.20;;;;;;4882440;29;20038;-88
2023/05/16 01:30:42;;;;;;;16.58;4.28;;;6.90;87.30;;;;;;4884000;29;20035;-89
2023/05/16 01:33:08;;;;;;;14.80;4.30;;;6.90;87.10;;;;;;4896588;29;20040;-88
2023/05/16 01:36:10;;;;;;;15.77;4.65;;;6.90;87.20;;;;;;4883056;29;20163;-88
2023/05/16 01:38:40;;;;;;;11.05;3.95;;;6.90;87.20;;;;;;4896422;29;20037;-88
2023/05/16 01:41:20;;;;;;;15.55;3.70;;;6.70;87.20;;;;;;4891870;29;20051;-88
2023/05/16 01:43:50;;;;;;;14.18;3.95;;;6.70;87.40;;;;;;4876581;29;20033;-87
2023/05/16 01:46:23;;;;;;;11.38;3.80;;;6.70;87.60;;;;;;4880463;29;20036;-88
2023/05/16 01:49:08;;;;;;;12.38;4.03;;;6.70;87.60;;;;;;4883759;29;20033;-88
2023/05/16 01:51:39;;;;;;;12.30;3.55;;;6.60;87.70;;;;;;4886194;29;20496;-88
2023/05/16 01:54:10;;;;;;;14.77;4.15;;;6.60;87.80;;;;;;4878119;29;20334;-86
2023/05/16 01:56:37;;;;;;;17.38;4.03;;;6.60;87.80;;;;;;4895193;29;20033;-88
2023/05/16 01:59:04;;;;;;;12.27;4.20;;;6.60;87.80;;;;;;4892773;29;20036;-89
2023/05/16 02:01:30;;;;;;;12.80;3.55;;;6.60;87.70;;;;;;4891507;29;20550;-88
2023/05/16 02:03:57;;;;;;;10.80;3.95;;;6.60;87.80;;;;;;4882099;29;20036;-88
2023/05/16 02:06:24;;;;;;;13.75;4.25;;;6.60;87.80;;;;;;4880521;29;20125;-88
2023/05/16 02:08:50;;;;;;;16.08;4.38;;;6.60;87.90;;;;;;4877208;29;20024;-89
2023/05/16 02:11:16;;;;;;;10.60;3.60;;;6.50;87.90;;;;;;4880126;29;20040;-87
2023/05/16 02:13:44;;;;;;;12.02;4.00;;;6.50;88.00;;;;;;4881387;29;20460;-87
2023/05/16 02:16:10;;;;;;;14.68;4.50;;;6.50;88.10;;;;;;4880518;29;20055;-87
2023/05/16 02:18:37;;;;;;;17.25;4.50;;;6.50;88.10;;;;;;4882686;29;20036;-87
2023/05/16 02:21:03;;;;;;;15.30;4.38;;;6.40;88.10;;;;;;4895080;29;20032;-87
2023/05/16 02:23:29;;;;;;;14.38;3.95;;;6.30;88.20;;;;;;4889138;29;20552;-87
2023/05/16 02:25:55;;;;;;;12.95;4.00;;;6.30;88.40;;;;;;4883128;29;20138;-87
2023/05/16 02:28:20;;;;;;;9.85;4.00;;;6.40;88.40;;;;;;4883445;29;20250;-88
2023/05/16 02:30:58;;;;;;;15.00;3.80;;;6.30;88.40;;;;;;4896555;29;20369;-88
2023/05/16 02:33:28;;;;;;;13.35;4.03;;;6.30;88.30;;;;;;4880279;29;20240;-87
2023/05/16 02:35:54;;;;;;;16.85;4.00;;;6.30;88.30;;;;;;4891616;29;20132;-87
2023/05/16 02:38:20;;;;;;;13.50;4.50;;;6.30;88.30;;;;;;4880185;29;20207;-88
2023/05/16 02:40:49;;;;;;;14.30;4.18;;;6.30;88.10;;;;;;4881416;29;20127;-88
2023/05/16 02:43:15;;;;;;;15.93;4.35;;;6.40;88.20;;;;;;4888057;29;20099;-87
2023/05/16 02:45:40;;;;;;;13.40;4.43;;;6.40;88.30;;;;;;4883829;29;20029;-87
2023/05/16 02:48:06;;;;;;;18.90;4.35;;;6.40;88.30;;;;;;4898387;29;20055;-88
2023/05/16 02:50:33;;;;;;;14.70;4.32;;;6.40;88.40;;;;;;4891504;29;20103;-87
2023/05/16 02:53:01;;;;;;;15.35;4.18;;;6.30;88.50;;;;;;4874535;29;20137;-88
2023/05/16 02:55:27;;;;;;;13.32;4.65;;;6.30;88.50;;;;;;4890533;29;20035;-88
2023/05/16 02:57:53;;;;;;;16.38;4.72;;;6.30;88.60;;;;;;4898997;29;20040;-87
2023/05/16 03:00:19;;;;;;;16.60;4.40;;;6.40;88.80;;;;;;4892325;29;20040;-88
2023/05/16 03:02:45;;;;;;;16.30;4.32;;;6.40;88.80;;;;;;4881217;29;20036;-88
2023/05/16 03:05:12;;;;;;;11.88;4.38;;;6.50;88.90;;;;;;4878558;29;20074;-87
2023/05/16 03:07:38;;;;;;;17.17;5.22;;;6.50;88.90;;;;;;4891980;29;20561;-87
2023/05/16 03:10:05;;;;;;;18.10;5.50;;;6.60;88.90;;;;;;4883204;29;20402;-88
2023/05/16 03:12:30;;;;;;;13.07;4.63;;;6.60;88.80;;;;;;4879529;29;20073;-88
2023/05/16 03:14:56;;;;;;;12.05;4.38;;;6.70;88.80;;;;;;4878694;29;20033;-87
2023/05/16 03:17:22;;;;;;;19.52;5.50;;;6.70;88.70;;;;;;4879163;29;20128;-87
2023/05/16 03:19:48;;;;;;;15.85;5.03;;;6.80;88.70;;;;;;4882721;29;20484;-87
2023/05/16 03:22:13;;;;;;;12.98;4.90;;;6.80;88.70;;;;;;4884143;29;20138;-88
2023/05/16 03:24:39;;;;;;;11.32;4.85;;;6.70;88.70;;;;;;4881168;29;20422;-88
2023/05/16 03:27:05;;;;;;;18.30;5.28;;;6.70;88.70;;;;;;4880860;29;20043;-88
2023/05/16 03:29:31;;;;;;;11.88;4.03;;;6.70;88.80;;;;;;4888544;29;20039;-87
2023/05/16 03:31:57;;;;;;;10.25;4.05;;;6.60;88.90;;;;;;4888890;29;20032;-87
2023/05/16 03:34:23;;;;;;;16.30;5.78;;;6.60;88.90;;;;;;4879091;29;20048;-88
2023/05/16 03:36:49;;;;;;;17.92;4.57;;;6.60;89.00;;;;;;4881547;29;20104;-88
2023/05/16 03:39:15;;;;;;;12.63;4.65;;;6.60;89.00;;;;;;4877729;29;20028;-87
2023/05/16 03:41:41;;;;;;;12.77;4.28;;;6.60;89.00;;;;;;4879291;29;20668;-88
2023/05/16 03:44:07;;;;;;;10.07;4.50;;;6.50;88.90;;;;;;4879988;29;20416;-88
2023/05/16 03:46:34;;;;;;;12.15;4.32;;;6.50;88.80;;;;;;4878047;29;20392;-87
2023/05/16 03:49:00;;;;;;;12.27;4.72;;;6.50;88.80;;;;;;4877175;29;20035;-88
2023/05/16 03:51:26;;;;;;;14.52;5.85;;;6.50;88.80;;;;;;4879064;29;20048;-87
2023/05/16 03:53:53;;;;;;;16.60;4.72;;;6.50;88.80;;;;;;4883284;29;20022;-88
2023/05/16 03:56:20;;;;;;;14.95;5.18;;;6.50;88.80;;;;;;4890896;29;20394;-87
2023/05/16 03:58:46;;;;;;;12.35;4.75;;;6.50;88.90;;;;;;4874641;29;20037;-87
2023/05/16 04:01:12;;;;;;;12.27;5.70;;;6.50;88.90;;;;;;4883145;29;20039;-87
2023/05/16 04:03:38;;;;;;;12.68;5.05;;;6.50;88.90;;;;;;4878923;29;20108;-87
2023/05/16 04:06:04;;;;;;;13.50;5.70;;;6.50;88.90;;;;;;4879365;29;20143;-87
2023/05/16 04:08:30;;;;;;;15.57;5.22;;;6.60;88.90;;;;;;4878504;29;20025;-87
2023/05/16 04:10:56;;;;;;;12.18;4.97;;;6.60;89.00;;;;;;4874841;29;20132;-86
2023/05/16 04:13:21;;;;;;;12.32;5.28;;;6.70;89.10;;;;;;4876290;29;20043;-87
2023/05/16 04:15:47;;;;;;;12.35;4.90;;;6.80;89.10;;;;;;4891674;29;20087;-87
2023/05/16 04:18:13;;;;;;;13.88;5.60;;;6.90;88.90;;;;;;4900297;29;20021;-88
2023/05/16 04:20:40;;;;;;;13.02;5.20;;;6.90;88.70;;;;;;4894973;29;20736;-87
2023/05/16 04:23:07;;;;;;;12.48;5.05;;;7.00;88.50;;;;;;4892297;29;20703;-87
2023/05/16 04:25:33;;;;;;;11.88;4.30;;;7.10;88.30;;;;;;4880993;29;20073;-87
2023/05/16 04:27:58;;;;;;;16.75;5.88;;;7.10;88.10;;;;;;4882635;29;20032;-87
2023/05/16 04:30:24;;;;;;;12.98;5.47;;;7.20;87.80;;;;;;4877431;29;20043;-87
2023/05/16 04:32:50;;;;;;;10.23;5.20;;;7.20;87.60;;;;;;4872013;29;20386;-86
2023/05/16 04:35:16;;;;;;;15.82;4.93;;;7.20;87.60;;;;;;4879908;29;20405;-86
2023/05/16 04:37:42;;;;;;;10.93;4.93;;;7.30;87.60;;;;;;4886063;29;20037;-87
2023/05/16 04:40:08;;;;;;;15.85;5.78;;;7.30;87.60;;;;;;4885053;29;20064;-87
2023/05/16 04:42:34;;;;;;;13.10;5.30;;;7.30;87.50;;;;;;4874717;29;20044;-86
2023/05/16 04:45:02;;;;;;;14.73;5.32;;;7.40;87.10;;;;;;4876156;29;20035;-87
2023/05/16 04:51:07;;;;;;;12.73;4.75;;;7.50;86.80;;;;;;4827417;29;20121;-87
2023/05/16 04:53:33;;;;;;;11.57;4.75;;;7.50;86.60;;;;;;4828468;29;20073;-87
2023/05/16 04:55:59;;;;;;;13.40;5.45;;;7.50;86.60;;;;;;4857834;29;20052;-86
2023/05/16 04:58:25;;;;;;;13.02;4.85;;;7.50;86.60;;;;;;4883165;29;20036;-87
2023/05/16 05:00:51;;;;;;;14.63;5.28;;;7.60;86.60;;;;;;4872658;29;20529;-87
2023/05/16 05:03:20;;;;;;;13.38;4.72;;;7.60;86.30;;;;;;4876132;29;20048;-87
2023/05/16 05:05:46;;;;;;;15.13;5.07;;;7.60;86.50;;;;;;4889671;29;20066;-86
2023/05/16 05:08:12;;;;;;;13.20;5.07;;;7.60;86.30;;;;;;4876837;29;20120;-86
2023/05/16 05:10:39;;;;;;;15.15;5.38;;;7.60;86.40;;;;;;4871075;29;20144;-86
2023/05/16 05:13:04;;;;;;;17.42;6.20;;;7.70;86.50;;;;;;4886923;29;20051;-87
2023/05/16 05:15:30;;;;;;;14.25;5.20;;;7.80;86.60;;;;;;4887845;29;20040;-86
2023/05/16 05:17:56;;;;;;;14.00;5.50;;;8.40;86.70;;;;;;4875827;29;20033;-87
2023/05/16 05:20:22;;;;;;;11.10;3.75;;;9.70;83.70;;;;;;4872304;29;20040;-87
2023/05/16 05:22:48;;;;;;;9.52;3.25;;;11.00;79.50;;;;;;4875878;29;20029;-87
2023/05/16 05:25:14;;;;;;;10.18;3.17;;;12.20;76.30;;;;;;4875795;29;20051;-87
2023/05/16 05:27:40;;;;;;;13.25;3.40;;;13.40;72.20;;;;;;4874854;29;20105;-87
2023/05/16 05:30:06;;;;;;;9.48;3.47;;;14.00;68.10;;;;;;4880769;29;20032;-87
2023/05/16 05:32:32;;;;;;;9.73;3.25;;;14.40;65.50;;;;;;4879582;29;20199;-88
2023/05/16 05:34:58;;;;;;;11.55;3.85;;;14.60;63.80;;;;;;4880733;29;20039;-88
2023/05/16 05:37:25;;;;;;;12.45;4.20;;;13.90;64.50;;;;;;4870626;29;20049;-87
2023/05/16 05:39:50;;;;;;;11.05;4.28;;;12.80;67.20;;;;;;4883378;29;20032;-87
2023/05/16 05:42:16;;;;;;;14.35;4.22;;;11.90;69.70;;;;;;4876643;29;20067;-88
2023/05/16 05:44:42;;;;;;;15.38;5.20;;;11.10;72.50;;;;;;4907959;29;20189;-87
2023/05/16 05:47:07;;;;;;;10.38;3.85;;;11.20;73.70;;;;;;4892272;29;20036;-87
2023/05/16 05:49:34;;;;;;;12.25;4.18;;;11.60;73.20;;;;;;4883841;29;20044;-86
2023/05/16 05:52:00;;;;;;;12.90;4.95;;;12.10;71.00;;;;;;4883336;29;20037;-87
2023/05/16 05:54:26;;;;;;;19.65;5.65;;;11.80;71.30;;;;;;4887784;29;20446;-86
2023/05/16 05:56:51;;;;;;;13.27;3.88;;;11.80;71.90;;;;;;4885210;29;20057;-86
2023/05/16 05:59:17;;;;;;;12.20;3.67;;;11.40;73.10;;;;;;4887197;29;20036;-87
2023/05/16 06:01:43;;;;;;;9.65;3.92;;;11.10;74.30;;;;;;4898077;29;20100;-87
2023/05/16 06:04:09;;;;;;;10.90;3.80;;;10.90;75.80;;;;;;4889957;29;20032;-86
2023/05/16 06:06:36;;;;;;;11.60;4.43;;;10.80;76.70;;;;;;4899865;29;20098;-86
2023/05/16 06:09:02;;;;;;;12.93;3.70;;;10.80;77.10;;;;;;4905621;29;20139;-87
2023/05/16 06:11:28;;;;;;;14.98;3.28;;;10.90;76.10;;;;;;4887952;29;20127;-86
2023/05/16 06:13:53;;;;;;;10.00;2.95;;;10.70;75.90;;;;;;4888444;29;20084;-87
2023/05/16 06:16:24;;;;;;;13.32;3.58;;;10.60;76.20;;;;;;4887373;29;20044;-86
2023/05/16 06:18:50;;;;;;;12.00;3.70;;;10.40;76.50;;;;;;4908591;29;20024;-85
2023/05/16 06:21:15;;;;;;;14.30;3.72;;;10.40;77.50;;;;;;4886996;29;20052;-87
2023/05/16 06:23:41;;;;;;;14.45;3.97;;;10.50;77.90;;;;;;4885431;29;20540;-87
2023/05/16 06:26:07;;;;;;;13.00;3.55;;;10.60;78.20;;;;;;4890018;29;20040;-86
2023/05/16 06:28:33;;;;;;;11.65;3.45;;;10.70;77.50;;;;;;4893148;29;20033;-85
2023/05/16 06:30:59;;;;;;;9.80;2.90;;;10.80;76.60;;;;;;4900584;29;20038;-86
2023/05/16 06:33:25;;;;;;;18.73;4.18;;;11.00;76.30;;;;;;4889803;29;20041;-85
2023/05/16 06:35:51;;;;;;;15.85;3.30;;;11.20;75.50;;;;;;4884910;29;20043;-86
2023/05/16 06:38:18;;;;;;;12.63;2.78;;;11.50;75.70;;;;;;4900323;29;20064;-88
2023/05/16 06:40:44;;;;;;;12.55;3.38;;;11.40;73.70;;;;;;4892138;29;20121;-85
2023/05/16 06:43:10;;;;;;;12.05;2.92;;;11.50;72.70;;;;;;4899280;29;20107;-87
2023/05/16 06:45:37;;;;;;;15.32;2.78;;;11.70;72.60;;;;;;4887317;29;20556;-85
2023/05/16 06:48:04;;;;;;;12.13;4.00;;;11.50;72.10;;;;;;4886251;29;20048;-87
2023/05/16 06:50:29;;;;;;;12.73;3.55;;;11.50;73.30;;;;;;4889936;29;20035;-87
2023/05/16 06:52:55;;;;;;;12.50;3.00;;;11.60;72.90;;;;;;4879794;29;20041;-86
2023/05/16 06:55:22;;;;;;;15.02;3.35;;;11.60;73.00;;;;;;4890048;29;20286;-88
2023/05/16 06:57:48;;;;;;;11.73;3.28;;;11.70;72.20;;;;;;4878183;29;20036;-87
2023/05/16 07:00:17;;;;;;;13.70;3.25;;;11.70;72.50;;;;;;4891845;29;20506;-87
2023/05/16 07:02:47;;;;;;;10.40;3.53;;;11.90;72.70;;;;;;4891273;29;20041;-87
2023/05/16 07:05:13;;;;;;;12.35;3.42;;;12.00;72.40;;;;;;4871216;29;20044;-86
2023/05/16 07:07:42;;;;;;;14.10;3.35;;;12.00;72.40;;;;;;4871456;29;20032;-86
2023/05/16 07:10:08;;;;;;;10.75;2.53;;;12.40;71.90;;;;;;4879779;29;20060;-86
2023/05/16 07:12:39;;;;;;;12.15;2.92;;;12.40;70.60;;;;;;4889954;29;20048;-87
2023/05/16 07:15:08;;;;;;;16.00;2.67;;;12.40;71.20;;;;;;4901542;29;20040;-86
2023/05/16 07:17:34;;;;;;;15.93;2.92;;;12.40;70.10;;;;;;4878582;29;20063;-86
2023/05/16 07:20:00;;;;;;;14.43;3.50;;;12.60;71.00;;;;;;4888695;29;20747;-86
2023/05/16 07:22:25;;;;;;;13.32;4.05;;;12.70;69.00;;;;;;4878641;29;20048;-87
2023/05/16 07:24:55;;;;;;;13.88;4.43;;;13.10;69.40;;;;;;4879215;29;20426;-86
2023/05/16 07:27:22;;;;;;;15.00;3.83;;;13.20;68.50;;;;;;4893994;29;20281;-86
2023/05/16 07:29:47;;;;;;;13.25;2.72;;;13.30;69.10;;;;;;4914768;29;20061;-89
2023/05/16 07:32:15;;;;;;;12.93;2.65;;;13.50;68.40;;;;;;4900405;29;20037;-87
2023/05/16 07:34:44;;;;;;;9.18;2.60;;;13.40;67.30;;;;;;4885655;29;20039;-89
2023/05/16 07:37:11;;;;;;;9.90;2.30;;;13.50;67.30;;;;;;4886484;29;20551;-89
2023/05/16 07:39:47;;;;;;;10.40;2.22;;;13.30;67.10;;;;;;4883929;29;20028;-87
2023/05/16 07:42:16;;;;;;;10.63;2.10;;;13.30;67.60;;;;;;4886875;29;20044;-86
2023/05/16 07:44:42;;;;;;;7.90;1.88;;;13.40;66.60;;;;;;4900957;29;20024;-88
2023/05/16 07:47:08;;;;;;;11.68;2.80;;;13.00;68.00;;;;;;4891894;29;20044;-88
2023/05/16 07:49:36;;;;;;;9.55;3.22;;;13.00;69.20;;;;;;4903053;29;20569;-90
2023/05/16 07:52:02;;;;;;;10.35;2.42;;;12.90;67.30;;;;;;4882503;29;20041;-89
2023/05/16 07:54:27;;;;;;;10.68;2.03;;;13.00;66.70;;;;;;4885253;29;20135;-91
2023/05/16 07:56:56;;;;;;;8.80;2.50;;;13.00;66.20;;;;;;4881204;29;20124;-90
2023/05/16 07:59:22;;;;;;;9.82;2.70;;;13.10;66.30;;;;;;4881038;29;20032;-90
2023/05/16 08:01:47;;;;;;;11.05;2.45;;;13.00;66.30;;;;;;4883385;29;20055;-91
2023/05/16 08:04:13;;;;;;;9.40;2.33;;;13.10;66.20;;;;;;4880376;29;20120;-89
2023/05/16 08:06:39;;;;;;;8.73;2.13;;;13.20;66.10;;;;;;4881171;29;20041;-90
2023/05/16 08:09:05;;;;;;;9.38;2.28;;;13.10;66.10;;;;;;4883955;29;20461;-88
2023/05/16 08:11:34;;;;;;;9.13;2.10;;;12.80;66.20;;;;;;4890465;29;20055;-90
2023/05/16 08:13:59;;;;;;;9.75;1.98;;;12.70;66.60;;;;;;4877684;29;20040;-88
2023/05/16 08:16:25;;;;;;;7.72;1.92;;;12.80;67.30;;;;;;4881523;29;20041;-89
2023/05/16 08:18:54;;;;;;;9.70;1.88;;;12.60;66.40;;;;;;4881908;29;20036;-90
2023/05/16 08:21:20;;;;;;;9.10;2.17;;;12.60;66.00;;;;;;4882720;29;20037;-91
2023/05/16 08:23:45;;;;;;;8.45;1.95;;;12.80;65.40;;;;;;4882698;29;20032;-89
2023/05/16 08:26:11;;;;;;;6.78;1.70;;;13.00;65.90;;;;;;4879270;29;20072;-90
2023/05/16 08:28:37;;;;;;;10.10;2.28;;;13.10;65.60;;;;;;4886258;29;20032;-89
2023/05/16 08:31:03;;;;;;;7.88;2.03;;;13.20;65.70;;;;;;4885022;29;20648;-89
2023/05/16 08:33:32;;;;;;;10.57;2.42;;;13.10;64.50;;;;;;4889174;29;20496;-90
2023/05/16 08:35:59;;;;;;;5.88;1.95;;;12.80;65.50;;;;;;4880729;29;20097;-90
2023/05/16 08:38:28;;;;;;;10.38;2.25;;;12.80;64.30;;;;;;4891685;29;20029;-91
2023/05/16 08:40:54;;;;;;;11.60;2.15;;;13.10;65.70;;;;;;4892738;29;20024;-90
2023/05/16 08:43:35;;;;;;;6.72;1.88;;;13.30;64.20;;;;;;4901371;29;20028;-89
2023/05/16 08:46:01;;;;;;;11.10;2.00;;;13.80;64.20;;;;;;4901361;29;20024;-90
2023/05/16 08:48:27;;;;;;;8.90;1.92;;;14.10;64.10;;;;;;4883504;29;20622;-90
2023/05/16 08:50:53;;;;;;;8.27;2.03;;;14.40;61.70;;;;;;4888348;29;20461;-91
2023/05/16 08:53:30;;;;;;;11.50;2.40;;;14.10;60.40;;;;;;4881003;29;20040;-90
2023/05/16 08:55:57;;;;;;;8.80;2.42;;;14.10;61.70;;;;;;4883494;29;20043;-91
2023/05/16 08:58:23;;;;;;;8.10;1.98;;;13.70;61.00;;;;;;4881761;29;20409;-91
2023/05/16 09:00:48;;;;;;;11.65;2.20;;;13.70;62.00;;;;;;4878525;29;20028;-91
2023/05/16 09:03:15;;;;;;;7.05;1.83;;;14.20;62.90;;;;;;4881414;29;20042;-92
2023/05/16 09:05:41;;;;;;;11.15;1.88;;;14.60;59.50;;;;;;4900367;29;20512;-92
2023/05/16 09:08:07;;;;;;;10.15;2.15;;;14.60;60.50;;;;;;4875767;29;20141;-90
2023/05/16 09:10:33;;;;;;;10.10;2.17;;;14.00;61.40;;;;;;4884514;29;20081;-92
2023/05/16 09:12:58;;;;;;;10.27;1.90;;;13.80;63.00;;;;;;4863091;29;20490;-91
2023/05/16 09:15:31;;;;;;;8.38;2.17;;;13.80;64.00;;;;;;4866414;29;20045;-91
2023/05/16 09:18:00;;;;;;;10.55;2.00;;;13.90;63.00;;;;;;4859467;29;20135;-90
2023/05/16 09:20:26;;;;;;;10.05;3.05;;;14.20;62.30;;;;;;4869856;29;20032;-91
2023/05/16 09:22:56;;;;;;;6.82;1.77;;;14.70;62.60;;;;;;4851118;29;20106;-91
2023/05/16 09:25:25;;;;;;;8.27;2.35;;;14.70;59.00;;;;;;4863965;29;20036;-91
2023/05/16 09:27:55;;;;;;;13.18;2.55;;;14.60;59.30;;;;;;4875060;29;20059;-92
2023/05/16 09:30:25;;;;;;;8.60;2.28;;;14.90;60.30;;;;;;4872549;29;20028;-92
2023/05/16 09:32:52;;;;;;;7.88;2.30;;;14.90;59.10;;;;;;4864957;29;20037;-91
2023/05/16 09:35:19;;;;;;;10.15;1.85;;;14.90;59.70;;;;;;4863987;29;20078;-90
2023/05/16 09:37:50;;;;;;;7.80;2.25;;;14.90;58.30;;;;;;4860751;29;20041;-90
2023/05/16 09:40:22;;;;;;;7.07;1.85;;;14.80;59.00;;;;;;4862034;29;20066;-91
2023/05/16 09:43:04;;;;;;;7.65;2.08;;;14.80;57.50;;;;;;4863013;29;20128;-90
2023/05/16 09:45:31;;;;;;;11.93;2.00;;;14.60;59.30;;;;;;4868719;29;20039;-90
2023/05/16 09:48:06;;;;;;;9.25;2.20;;;15.10;59.10;;;;;;4874249;29;20056;-89
2023/05/16 09:50:33;;;;;;;11.52;2.47;;;15.20;57.90;;;;;;4864785;29;20650;-90
2023/05/16 09:52:59;;;;;;;10.25;2.38;;;15.40;60.30;;;;;;4858022;29;20574;-91
2023/05/16 09:55:25;;;;;;;8.77;2.40;;;15.10;59.50;;;;;;4867225;29;20109;-89
2023/05/16 09:57:51;;;;;;;9.07;2.05;;;15.20;60.10;;;;;;4874875;29;20076;-90
2023/05/16 10:00:17;;;;;;;9.35;2.20;;;15.20;59.80;;;;;;4859989;29;20035;-91
2023/05/16 10:02:43;;;;;;;9.18;1.95;;;15.50;58.90;;;;;;4861661;29;20037;-90
2023/05/16 10:05:09;;;;;;;12.27;1.98;;;15.20;57.80;;;;;;4859094;29;20436;-91
2023/05/16 10:07:37;;;;;;;6.18;1.85;;;15.70;57.70;;;;;;4873127;29;20065;-90
2023/05/16 10:10:09;;;;;;;9.18;1.80;;;15.30;54.10;;;;;;4905958;29;20061;-89
2023/05/16 10:12:37;;;;;;;8.57;2.20;;;15.40;57.00;;;;;;4888351;29;20037;-90
2023/05/16 10:15:04;;;;;;;7.43;2.00;;;15.60;56.20;;;;;;4885006;29;20032;-90
2023/05/16 10:17:32;;;;;;;8.35;3.25;;;15.30;53.40;;;;;;4878872;29;20400;-90
2023/05/16 10:20:04;;;;;;;6.93;2.20;;;15.70;55.00;;;;;;4885478;29;20033;-89
2023/05/16 10:22:35;;;;;;;7.38;1.60;;;15.80;56.10;;;;;;4881350;29;20052;-89
2023/05/16 10:25:14;;;;;;;12.32;2.47;;;15.80;56.40;;;;;;4878344;29;20392;-90
2023/05/16 10:27:41;;;;;;;8.18;2.40;;;16.10;58.00;;;;;;4893800;29;20591;-90
2023/05/16 10:30:08;;;;;;;6.45;2.05;;;15.50;55.70;;;;;;4882806;29;20033;-90
2023/05/16 10:32:36;;;;;;;7.28;1.60;;;15.40;56.70;;;;;;4884154;29;20040;-89
2023/05/16 10:35:03;;;;;;;7.45;2.17;;;15.90;56.70;;;;;;4874276;29;20033;-89
2023/05/16 10:37:31;;;;;;;8.73;1.70;;;16.00;52.60;;;;;;4884834;29;20043;-90
2023/05/16 10:39:59;;;;;;;7.97;1.80;;;15.90;54.20;;;;;;4874852;29;20032;-91
2023/05/16 10:42:25;;;;;;;12.40;2.20;;;15.60;53.70;;;;;;4883148;29;20041;-91
2023/05/16 10:44:57;;;;;;;7.60;1.88;;;15.70;54.70;;;;;;4877585;29;20024;-89
2023/05/16 10:47:23;;;;;;;7.07;1.73;;;16.10;55.90;;;;;;4881945;29;20072;-91
2023/05/16 10:49:49;;;;;;;8.77;2.28;;;16.20;53.30;;;;;;4873338;29;20033;-90
2023/05/16 10:52:16;;;;;;;8.20;1.90;;;16.10;53.80;;;;;;4886019;29;20037;-90
2023/05/16 10:54:51;;;;;;;7.00;1.88;;;16.10;54.40;;;;;;4886129;29;20048;-90
2023/05/16 10:57:22;;;;;;;5.55;1.70;;;15.90;53.30;;;;;;4875826;29;20462;-90
2023/05/16 10:59:50;;;;;;;8.40;1.92;;;16.20;53.60;;;;;;4898309;29;20036;-89
2023/05/16 11:02:29;;;;;;;6.35;1.40;;;16.20;53.60;;;;;;4889913;29;20495;-90
2023/05/16 11:04:58;;;;;;;9.80;3.08;;;16.50;53.20;;;;;;4872725;29;20124;-90
2023/05/16 11:07:25;;;;;;;12.77;2.42;;;16.30;53.30;;;;;;4875029;29;20449;-91
2023/05/16 11:10:05;;;;;;;9.43;2.00;;;16.20;52.20;;;;;;4888340;29;20516;-89
2023/05/16 11:12:44;;;;;;;8.02;2.10;;;16.10;52.80;;;;;;4895231;29;20041;-89
2023/05/16 11:15:26;;;;;;;8.18;2.00;;;16.20;53.50;;;;;;4886396;29;20056;-87
2023/05/16 11:18:07;;;;;;;11.88;2.03;;;16.20;53.20;;;;;;4886518;29;20040;-89
2023/05/16 11:20:37;;;;;;;10.23;2.22;;;16.30;54.80;;;;;;4883905;29;20032;-87
2023/05/16 11:23:24;;;;;;;7.88;2.05;;;16.30;54.00;;;;;;4877349;29;20029;-87
2023/05/16 11:25:56;;;;;;;8.77;1.70;;;16.40;53.50;;;;;;4890260;29;20063;-89
2023/05/16 11:28:24;;;;;;;7.85;2.13;;;16.60;53.80;;;;;;4879938;29;20093;-88
2023/05/16 11:30:56;;;;;;;5.55;1.80;;;16.30;53.00;;;;;;4876287;29;20112;-88
2023/05/16 11:33:26;;;;;;;5.88;1.90;;;16.40;51.50;;;;;;4876726;29;20025;-88
2023/05/16 11:36:05;;;;;;;8.40;2.20;;;16.30;51.40;;;;;;4876776;29;20131;-87
2023/05/16 11:38:32;;;;;;;8.48;1.60;;;16.40;52.40;;;;;;4911436;29;20052;-87
2023/05/16 11:41:05;;;;;;;7.78;1.88;;;16.50;52.40;;;;;;4892277;29;20028;-89
2023/05/16 11:43:42;;;;;;;8.57;2.65;;;16.60;54.30;;;;;;4881727;29;20040;-88
2023/05/16 11:46:15;;;;;;;7.18;2.08;;;16.90;51.50;;;;;;4883853;29;20045;-89
2023/05/16 11:48:46;;;;;;;7.63;1.95;;;17.10;52.00;;;;;;4877524;29;20687;-90
2023/05/16 11:51:13;;;;;;;8.68;1.70;;;17.00;51.30;;;;;;4875745;29;20051;-89
2023/05/16 11:53:39;;;;;;;7.03;1.63;;;16.60;50.80;;;;;;4882982;29;20135;-89
2023/05/16 11:56:07;;;;;;;4.13;1.65;;;16.50;52.00;;;;;;4891972;29;20348;-88
2023/05/16 11:58:33;;;;;;;7.45;1.70;;;16.60;50.10;;;;;;4874932;29;20040;-88
2023/05/16 12:00:59;;;;;;;7.35;1.90;;;16.90;49.20;;;;;;4883496;29;20029;-87
2023/05/16 12:03:24;;;;;;;6.90;2.10;;;17.00;51.20;;;;;;4877022;29;20445;-90
2023/05/16 12:05:56;;;;;;;8.00;1.95;;;17.10;48.80;;;;;;4894079;29;20031;-89
2023/05/16 12:08:25;;;;;;;7.50;1.80;;;16.90;48.40;;;;;;4875157;29;20013;-90
2023/05/16 12:10:52;;;;;;;7.32;1.70;;;16.70;49.20;;;;;;4862911;29;20497;-88
2023/05/16 12:13:20;;;;;;;6.65;1.67;;;16.90;48.80;;;;;;4860434;29;20025;-89
2023/05/16 12:15:47;;;;;;;6.55;1.63;;;17.00;48.70;;;;;;4875969;29;20068;-88
2023/05/16 12:18:13;;;;;;;6.63;1.60;;;17.10;45.60;;;;;;4859289;29;20033;-89
2023/05/16 12:20:39;;;;;;;6.53;1.75;;;17.10;47.40;;;;;;4864976;29;20124;-91
2023/05/16 12:23:09;;;;;;;4.88;1.42;;;17.00;46.20;;;;;;4862168;29;20068;-89
2023/05/16 12:25:40;;;;;;;6.78;1.90;;;16.70;46.90;;;;;;4871881;29;20442;-88
2023/05/16 12:28:07;;;;;;;7.18;1.90;;;16.90;46.70;;;;;;4846572;29;20037;-87
2023/05/16 12:30:33;;;;;;;6.78;1.92;;;17.00;46.20;;;;;;4863634;29;20036;-86
2023/05/16 12:33:01;;;;;;;6.57;1.48;;;17.00;44.10;;;;;;4882778;29;20040;-87
2023/05/16 12:35:32;;;;;;;9.63;1.80;;;16.90;46.40;;;;;;4872518;29;20041;-89
2023/05/16 12:37:58;;;;;;;5.78;1.98;;;17.00;46.80;;;;;;4858964;29;20093;-89
2023/05/16 12:40:28;;;;;;;5.68;1.48;;;16.90;48.10;;;;;;4857396;29;20036;-87
2023/05/16 12:42:54;;;;;;;9.68;1.73;;;17.10;46.40;;;;;;4855051;29;20562;-87
2023/05/16 12:45:22;;;;;;;5.53;1.70;;;17.40;47.90;;;;;;4851973;29;20374;-87
2023/05/16 12:47:48;;;;;;;7.28;1.80;;;16.90;45.60;;;;;;4852934;29;20122;-86
2023/05/16 12:50:18;;;;;;;5.90;1.95;;;17.00;46.30;;;;;;4851537;29;20364;-88
2023/05/16 12:52:51;;;;;;;5.35;1.70;;;17.10;46.00;;;;;;4861854;29;20263;-89